EJU48B EPGD-EPKK
Flight info
| Callsign | EJU48B |
|---|---|
| Flight time | 0h 53m |
| Altitude | 29000 |
| Route | IRLUN DCT PENEX N133 POLON DCT KUKAM |
| Aircraft | A20N/M-SDE2E3FGHIRWXY/LB1 |
Departure
| Time | 2026-05-06 17:33 |
|---|---|
| Airport | Gdańsk Lech Wałęsa Airport (EPGD) |
Arrival
| Time | 2026-05-06 18:27 |
|---|---|
| Airport | Kraków John Paul II International Airport (EPKK) |
| Time | Latitude | Longitude | Altitude | Speed | Heading |
|---|---|---|---|---|---|
| 2026-05-06 17:03 | 54.38132 | 18.46558 | 453 ft | 0 kts | 25° |
| 2026-05-06 17:23 | 54.38118 | 18.46548 | 453 ft | 2 kts | 22° |
| 2026-05-06 17:23 | 54.38103 | 18.46537 | 452 ft | 2 kts | 24° |
| 2026-05-06 17:23 | 54.38087 | 18.46530 | 452 ft | 2 kts | 298° |
| 2026-05-06 17:23 | 54.38085 | 18.46537 | 452 ft | 0 kts | 299° |
| 2026-05-06 17:26 | 54.38086 | 18.46529 | 452 ft | 0 kts | 291° |
| 2026-05-06 17:26 | 54.38093 | 18.46501 | 451 ft | 5 kts | 291° |
| 2026-05-06 17:27 | 54.38111 | 18.46423 | 453 ft | 9 kts | 291° |
| 2026-05-06 17:27 | 54.38142 | 18.46299 | 453 ft | 13 kts | 294° |
| 2026-05-06 17:27 | 54.38176 | 18.46154 | 453 ft | 9 kts | 276° |
| 2026-05-06 17:27 | 54.38136 | 18.46096 | 453 ft | 9 kts | 209° |
| 2026-05-06 17:28 | 54.38105 | 18.45990 | 453 ft | 12 kts | 262° |
| 2026-05-06 17:28 | 54.38125 | 18.45834 | 451 ft | 16 kts | 292° |
| 2026-05-06 17:28 | 54.38120 | 18.45643 | 450 ft | 17 kts | 216° |
| 2026-05-06 17:28 | 54.38111 | 18.45636 | 451 ft | 0 kts | 203° |
| 2026-05-06 17:31 | 54.38104 | 18.45631 | 451 ft | 2 kts | 203° |
| 2026-05-06 17:31 | 54.38085 | 18.45617 | 452 ft | 4 kts | 203° |
| 2026-05-06 17:32 | 54.38057 | 18.45600 | 453 ft | 5 kts | 188° |
| 2026-05-06 17:32 | 54.38023 | 18.45615 | 454 ft | 5 kts | 149° |
| 2026-05-06 17:32 | 54.37994 | 18.45677 | 455 ft | 9 kts | 119° |
| 2026-05-06 17:32 | 54.37960 | 18.45812 | 455 ft | 16 kts | 113° |
| 2026-05-06 17:33 | 54.37840 | 18.46307 | 454 ft | 80 kts | 111° |
| 2026-05-06 17:33 | 54.37542 | 18.47511 | 459 ft | 135 kts | 112° |
| 2026-05-06 17:33 | 54.37106 | 18.49139 | 691 ft | 158 kts | 110° |
| 2026-05-06 17:33 | 54.36625 | 18.50879 | 1289 ft | 159 kts | 110° |
| 2026-05-06 17:34 | 54.36174 | 18.52582 | 1981 ft | 160 kts | 110° |
| 2026-05-06 17:34 | 54.35720 | 18.54319 | 2658 ft | 159 kts | 111° |
| 2026-05-06 17:34 | 54.35284 | 18.56118 | 3251 ft | 165 kts | 111° |
| 2026-05-06 17:34 | 54.34889 | 18.57979 | 3850 ft | 174 kts | 111° |
| 2026-05-06 17:35 | 54.34436 | 18.60024 | 4405 ft | 194 kts | 115° |
| 2026-05-06 17:35 | 54.33885 | 18.62283 | 4953 ft | 218 kts | 116° |
| 2026-05-06 17:35 | 54.33052 | 18.64580 | 5478 ft | 235 kts | 141° |
| 2026-05-06 17:36 | 54.30074 | 18.65774 | 6517 ft | 226 kts | 202° |
| 2026-05-06 17:36 | 54.28602 | 18.64682 | 7033 ft | 243 kts | 206° |
| 2026-05-06 17:36 | 54.26989 | 18.63454 | 7545 ft | 259 kts | 206° |
| 2026-05-06 17:36 | 54.25292 | 18.62387 | 8045 ft | 263 kts | 198° |
| 2026-05-06 17:37 | 54.23467 | 18.61891 | 8557 ft | 268 kts | 187° |
| 2026-05-06 17:37 | 54.21581 | 18.61877 | 9080 ft | 272 kts | 184° |
| 2026-05-06 17:37 | 54.20301 | 18.61885 | 9435 ft | 273 kts | 184° |
| 2026-05-06 17:37 | 54.18394 | 18.61883 | 9942 ft | 276 kts | 185° |
| 2026-05-06 17:38 | 54.16396 | 18.61862 | 10425 ft | 298 kts | 185° |
| 2026-05-06 17:38 | 54.14267 | 18.61833 | 10936 ft | 317 kts | 185° |
| 2026-05-06 17:38 | 54.12011 | 18.61808 | 11470 ft | 329 kts | 185° |
| 2026-05-06 17:38 | 54.09714 | 18.61792 | 12464 ft | 332 kts | 185° |
| 2026-05-06 17:39 | 54.07383 | 18.61777 | 13393 ft | 337 kts | 185° |
| 2026-05-06 17:39 | 54.05022 | 18.61758 | 14226 ft | 341 kts | 185° |
| 2026-05-06 17:39 | 54.02631 | 18.61738 | 15095 ft | 345 kts | 185° |
| 2026-05-06 17:39 | 54.00219 | 18.61717 | 15924 ft | 349 kts | 185° |
| 2026-05-06 17:40 | 53.97780 | 18.61694 | 16762 ft | 352 kts | 185° |
| 2026-05-06 17:40 | 53.95347 | 18.61671 | 17558 ft | 356 kts | 185° |
| 2026-05-06 17:40 | 53.92821 | 18.61647 | 18357 ft | 360 kts | 185° |
| 2026-05-06 17:40 | 53.90300 | 18.61625 | 19100 ft | 363 kts | 185° |
| 2026-05-06 17:41 | 53.87763 | 18.61604 | 19834 ft | 366 kts | 185° |
| 2026-05-06 17:41 | 53.85205 | 18.61582 | 20549 ft | 369 kts | 185° |
| 2026-05-06 17:41 | 53.82622 | 18.61559 | 21256 ft | 373 kts | 185° |
| 2026-05-06 17:41 | 53.80014 | 18.61537 | 21957 ft | 376 kts | 185° |
| 2026-05-06 17:42 | 53.77387 | 18.61577 | 22641 ft | 381 kts | 181° |
| 2026-05-06 17:42 | 53.74722 | 18.62085 | 23323 ft | 389 kts | 175° |
| 2026-05-06 17:42 | 53.72067 | 18.63155 | 23899 ft | 397 kts | 168° |
| 2026-05-06 17:42 | 53.69442 | 18.64662 | 24469 ft | 401 kts | 166° |
| 2026-05-06 17:43 | 53.66795 | 18.66204 | 25012 ft | 404 kts | 166° |
| 2026-05-06 17:43 | 53.64126 | 18.67745 | 25539 ft | 407 kts | 167° |
| 2026-05-06 17:43 | 53.61435 | 18.69288 | 26073 ft | 410 kts | 167° |
| 2026-05-06 17:43 | 53.58726 | 18.70834 | 26595 ft | 413 kts | 167° |
| 2026-05-06 17:44 | 53.55994 | 18.72389 | 27094 ft | 416 kts | 167° |
| 2026-05-06 17:44 | 53.53246 | 18.73951 | 27581 ft | 419 kts | 167° |
| 2026-05-06 17:44 | 53.50474 | 18.75524 | 28043 ft | 422 kts | 167° |
| 2026-05-06 17:44 | 53.47688 | 18.77103 | 28515 ft | 424 kts | 167° |
| 2026-05-06 17:45 | 53.44884 | 18.78690 | 28742 ft | 427 kts | 167° |
| 2026-05-06 17:45 | 53.42067 | 18.80284 | 28773 ft | 427 kts | 167° |
| 2026-05-06 17:45 | 53.36446 | 18.83458 | 28766 ft | 426 kts | 167° |
| 2026-05-06 17:46 | 53.30822 | 18.86622 | 28774 ft | 426 kts | 167° |
| 2026-05-06 17:46 | 53.25206 | 18.89773 | 28761 ft | 426 kts | 167° |
| 2026-05-06 17:47 | 53.19588 | 18.92914 | 28769 ft | 426 kts | 167° |
| 2026-05-06 17:47 | 53.13971 | 18.96047 | 28768 ft | 426 kts | 167° |
| 2026-05-06 17:48 | 53.08352 | 18.99172 | 28759 ft | 425 kts | 167° |
| 2026-05-06 17:48 | 53.02778 | 19.02264 | 28755 ft | 425 kts | 167° |
| 2026-05-06 17:49 | 52.97162 | 19.05370 | 28762 ft | 426 kts | 167° |
| 2026-05-06 17:49 | 52.91544 | 19.08469 | 28762 ft | 425 kts | 167° |
| 2026-05-06 17:50 | 52.85924 | 19.11562 | 28763 ft | 426 kts | 167° |
| 2026-05-06 17:50 | 52.80310 | 19.14643 | 28766 ft | 425 kts | 167° |
| 2026-05-06 17:51 | 52.74687 | 19.17719 | 28763 ft | 425 kts | 167° |
| 2026-05-06 17:51 | 52.69069 | 19.20785 | 28765 ft | 425 kts | 167° |
| 2026-05-06 17:52 | 52.63450 | 19.23843 | 28765 ft | 425 kts | 167° |
| 2026-05-06 17:52 | 52.57833 | 19.26893 | 28766 ft | 425 kts | 167° |
| 2026-05-06 17:53 | 52.52199 | 19.29854 | 28768 ft | 425 kts | 168° |
| 2026-05-06 17:53 | 52.46554 | 19.32661 | 28770 ft | 424 kts | 169° |
| 2026-05-06 17:54 | 52.40913 | 19.35474 | 28766 ft | 424 kts | 168° |
| 2026-05-06 17:54 | 52.35277 | 19.38295 | 28768 ft | 423 kts | 168° |
| 2026-05-06 17:55 | 52.29641 | 19.41112 | 28765 ft | 423 kts | 168° |
| 2026-05-06 17:55 | 52.24007 | 19.43921 | 28768 ft | 423 kts | 168° |
| 2026-05-06 17:56 | 52.18380 | 19.46717 | 28767 ft | 423 kts | 168° |
| 2026-05-06 17:56 | 52.12761 | 19.49504 | 28767 ft | 422 kts | 168° |
| 2026-05-06 17:57 | 52.07140 | 19.52283 | 28766 ft | 422 kts | 168° |
| 2026-05-06 17:57 | 52.01523 | 19.55054 | 28768 ft | 421 kts | 168° |
| 2026-05-06 17:58 | 51.95914 | 19.57814 | 28772 ft | 421 kts | 168° |
| 2026-05-06 17:58 | 51.90308 | 19.60566 | 28770 ft | 421 kts | 168° |
| 2026-05-06 17:59 | 51.84703 | 19.63309 | 28770 ft | 420 kts | 168° |
| 2026-05-06 17:59 | 51.79110 | 19.66037 | 28772 ft | 419 kts | 169° |
| 2026-05-06 18:00 | 51.73477 | 19.68407 | 28770 ft | 418 kts | 171° |
| 2026-05-06 18:00 | 51.67837 | 19.70675 | 28772 ft | 418 kts | 171° |
| 2026-05-06 18:01 | 51.62199 | 19.72985 | 28772 ft | 418 kts | 171° |
| 2026-05-06 18:01 | 51.56570 | 19.75304 | 28770 ft | 417 kts | 171° |
| 2026-05-06 18:02 | 51.50949 | 19.77617 | 28701 ft | 415 kts | 171° |
| 2026-05-06 18:02 | 51.48162 | 19.78762 | 28271 ft | 412 kts | 171° |
| 2026-05-06 18:02 | 51.45398 | 19.79896 | 27657 ft | 409 kts | 171° |
| 2026-05-06 18:03 | 51.42652 | 19.81020 | 26983 ft | 406 kts | 171° |
| 2026-05-06 18:03 | 51.39931 | 19.82132 | 26323 ft | 402 kts | 171° |
| 2026-05-06 18:03 | 51.37228 | 19.83234 | 25674 ft | 399 kts | 170° |
| 2026-05-06 18:03 | 51.34549 | 19.84326 | 25042 ft | 396 kts | 170° |
| 2026-05-06 18:04 | 51.31892 | 19.85406 | 24436 ft | 392 kts | 170° |
| 2026-05-06 18:04 | 51.29253 | 19.86478 | 23797 ft | 390 kts | 170° |
| 2026-05-06 18:04 | 51.26632 | 19.87542 | 23159 ft | 387 kts | 170° |
| 2026-05-06 18:04 | 51.24034 | 19.88596 | 22502 ft | 383 kts | 169° |
| 2026-05-06 18:05 | 51.21464 | 19.89639 | 21874 ft | 379 kts | 169° |
| 2026-05-06 18:05 | 51.18916 | 19.90671 | 21238 ft | 376 kts | 169° |
| 2026-05-06 18:05 | 51.16397 | 19.91690 | 20621 ft | 372 kts | 169° |
| 2026-05-06 18:05 | 51.13892 | 19.92702 | 20009 ft | 369 kts | 169° |
| 2026-05-06 18:06 | 51.11412 | 19.93703 | 19416 ft | 366 kts | 169° |
| 2026-05-06 18:06 | 51.08955 | 19.94694 | 18840 ft | 363 kts | 169° |
| 2026-05-06 18:06 | 51.06513 | 19.95677 | 18265 ft | 360 kts | 169° |
| 2026-05-06 18:06 | 51.04092 | 19.96651 | 17635 ft | 358 kts | 169° |
| 2026-05-06 18:07 | 51.01689 | 19.97617 | 16997 ft | 355 kts | 169° |
| 2026-05-06 18:07 | 50.99304 | 19.98574 | 16396 ft | 352 kts | 169° |
| 2026-05-06 18:07 | 50.96938 | 19.99523 | 15817 ft | 349 kts | 169° |
| 2026-05-06 18:07 | 50.94591 | 20.00463 | 15235 ft | 347 kts | 169° |
| 2026-05-06 18:08 | 50.92258 | 20.01396 | 14666 ft | 344 kts | 169° |
| 2026-05-06 18:08 | 50.89942 | 20.02322 | 14102 ft | 342 kts | 169° |
| 2026-05-06 18:08 | 50.87646 | 20.03238 | 13545 ft | 340 kts | 169° |
| 2026-05-06 18:08 | 50.85354 | 20.04129 | 12946 ft | 337 kts | 169° |
| 2026-05-06 18:09 | 50.83085 | 20.05001 | 12387 ft | 334 kts | 169° |
| 2026-05-06 18:09 | 50.80823 | 20.05865 | 12023 ft | 335 kts | 169° |
| 2026-05-06 18:09 | 50.78572 | 20.06720 | 11878 ft | 330 kts | 169° |
| 2026-05-06 18:09 | 50.76343 | 20.07565 | 11474 ft | 328 kts | 169° |
| 2026-05-06 18:10 | 50.74107 | 20.08167 | 11055 ft | 324 kts | 182° |
| 2026-05-06 18:10 | 50.71906 | 20.07599 | 10646 ft | 320 kts | 197° |
| 2026-05-06 18:10 | 50.69805 | 20.06652 | 10490 ft | 308 kts | 196° |
| 2026-05-06 18:10 | 50.67746 | 20.05933 | 10248 ft | 299 kts | 191° |
| 2026-05-06 18:11 | 50.65717 | 20.05501 | 10005 ft | 290 kts | 187° |
| 2026-05-06 18:11 | 50.64395 | 20.05327 | 9780 ft | 286 kts | 186° |
| 2026-05-06 18:11 | 50.61771 | 20.05126 | 9300 ft | 276 kts | 184° |
| 2026-05-06 18:11 | 50.59892 | 20.05041 | 8968 ft | 266 kts | 184° |
| 2026-05-06 18:12 | 50.58025 | 20.05227 | 8675 ft | 273 kts | 167° |
| 2026-05-06 18:12 | 50.56281 | 20.06415 | 8482 ft | 273 kts | 157° |
| 2026-05-06 18:12 | 50.54585 | 20.07752 | 8109 ft | 272 kts | 156° |
| 2026-05-06 18:12 | 50.52900 | 20.09103 | 7704 ft | 271 kts | 156° |
| 2026-05-06 18:13 | 50.51223 | 20.10443 | 7327 ft | 270 kts | 156° |
| 2026-05-06 18:13 | 50.49547 | 20.11771 | 6927 ft | 269 kts | 157° |
| 2026-05-06 18:13 | 50.47881 | 20.13083 | 6543 ft | 268 kts | 157° |
| 2026-05-06 18:13 | 50.46219 | 20.14387 | 6154 ft | 266 kts | 157° |
| 2026-05-06 18:14 | 50.44581 | 20.15672 | 5986 ft | 258 kts | 157° |
| 2026-05-06 18:14 | 50.42923 | 20.16965 | 6003 ft | 269 kts | 157° |
| 2026-05-06 18:14 | 50.41257 | 20.18267 | 5983 ft | 266 kts | 157° |
| 2026-05-06 18:14 | 50.39606 | 20.19558 | 5764 ft | 265 kts | 157° |
| 2026-05-06 18:15 | 50.37957 | 20.20845 | 5363 ft | 264 kts | 157° |
| 2026-05-06 18:15 | 50.36311 | 20.22128 | 4969 ft | 264 kts | 157° |
| 2026-05-06 18:15 | 50.34665 | 20.23412 | 4549 ft | 264 kts | 157° |
| 2026-05-06 18:15 | 50.33053 | 20.24670 | 4367 ft | 254 kts | 157° |
| 2026-05-06 18:16 | 50.31505 | 20.25877 | 4084 ft | 242 kts | 157° |
| 2026-05-06 18:16 | 50.30057 | 20.27009 | 4003 ft | 223 kts | 157° |
| 2026-05-06 18:16 | 50.28731 | 20.28046 | 4013 ft | 211 kts | 158° |
| 2026-05-06 18:16 | 50.27412 | 20.29065 | 4005 ft | 212 kts | 158° |
| 2026-05-06 18:17 | 50.26099 | 20.30079 | 4010 ft | 210 kts | 158° |
| 2026-05-06 18:17 | 50.24787 | 20.31092 | 4003 ft | 210 kts | 158° |
| 2026-05-06 18:17 | 50.23433 | 20.31887 | 4006 ft | 206 kts | 171° |
| 2026-05-06 18:17 | 50.22030 | 20.32322 | 4006 ft | 206 kts | 172° |
| 2026-05-06 18:18 | 50.21095 | 20.32614 | 4007 ft | 206 kts | 172° |
| 2026-05-06 18:18 | 50.19691 | 20.33066 | 4009 ft | 206 kts | 171° |
| 2026-05-06 18:18 | 50.18284 | 20.33525 | 4004 ft | 207 kts | 171° |
| 2026-05-06 18:18 | 50.16872 | 20.33745 | 4005 ft | 202 kts | 192° |
| 2026-05-06 18:19 | 50.15629 | 20.32827 | 4005 ft | 200 kts | 224° |
| 2026-05-06 18:19 | 50.14928 | 20.30974 | 4005 ft | 203 kts | 255° |
| 2026-05-06 18:19 | 50.14649 | 20.28786 | 4006 ft | 202 kts | 257° |
| 2026-05-06 18:19 | 50.14376 | 20.26641 | 4005 ft | 202 kts | 256° |
| 2026-05-06 18:20 | 50.14094 | 20.24488 | 4007 ft | 204 kts | 256° |
| 2026-05-06 18:20 | 50.13804 | 20.22331 | 4008 ft | 203 kts | 256° |
| 2026-05-06 18:20 | 50.13512 | 20.20185 | 4006 ft | 202 kts | 256° |
| 2026-05-06 18:20 | 50.13221 | 20.18048 | 4006 ft | 202 kts | 255° |
| 2026-05-06 18:21 | 50.12927 | 20.15894 | 4006 ft | 204 kts | 255° |
| 2026-05-06 18:21 | 50.12636 | 20.13759 | 3998 ft | 196 kts | 255° |
| 2026-05-06 18:21 | 50.12368 | 20.11769 | 4013 ft | 181 kts | 255° |
| 2026-05-06 18:21 | 50.12108 | 20.09859 | 4004 ft | 180 kts | 255° |
| 2026-05-06 18:22 | 50.11843 | 20.07938 | 3944 ft | 183 kts | 255° |
| 2026-05-06 18:22 | 50.11587 | 20.06077 | 3732 ft | 177 kts | 255° |
| 2026-05-06 18:22 | 50.11328 | 20.04191 | 3479 ft | 170 kts | 255° |
| 2026-05-06 18:22 | 50.11082 | 20.02411 | 3233 ft | 166 kts | 255° |
| 2026-05-06 18:23 | 50.10843 | 20.00678 | 3032 ft | 161 kts | 255° |
| 2026-05-06 18:23 | 50.10610 | 19.98981 | 3004 ft | 163 kts | 255° |
| 2026-05-06 18:23 | 50.10374 | 19.97263 | 3000 ft | 162 kts | 255° |
| 2026-05-06 18:23 | 50.10136 | 19.95541 | 2989 ft | 162 kts | 255° |
| 2026-05-06 18:24 | 50.09900 | 19.93831 | 2816 ft | 160 kts | 255° |
| 2026-05-06 18:24 | 50.09669 | 19.92157 | 2598 ft | 156 kts | 255° |
| 2026-05-06 18:24 | 50.09446 | 19.90534 | 2395 ft | 150 kts | 255° |
| 2026-05-06 18:24 | 50.09232 | 19.88983 | 2198 ft | 144 kts | 255° |
| 2026-05-06 18:25 | 50.09022 | 19.87464 | 1956 ft | 145 kts | 255° |
| 2026-05-06 18:25 | 50.08799 | 19.85911 | 1733 ft | 149 kts | 257° |
| 2026-05-06 18:25 | 50.08571 | 19.84319 | 1500 ft | 151 kts | 258° |
| 2026-05-06 18:25 | 50.08349 | 19.82738 | 1270 ft | 150 kts | 259° |
| 2026-05-06 18:26 | 50.08130 | 19.81169 | 1009 ft | 147 kts | 261° |
| 2026-05-06 18:26 | 50.07916 | 19.79596 | 803 ft | 150 kts | 261° |
| 2026-05-06 18:26 | 50.07722 | 19.78116 | 788 ft | 129 kts | 258° |
| 2026-05-06 18:26 | 50.07579 | 19.77077 | 795 ft | 50 kts | 259° |
| 2026-05-06 18:27 | 50.07469 | 19.76860 | 794 ft | 16 kts | 166° |
| 2026-05-06 18:27 | 50.07386 | 19.76888 | 790 ft | 0 kts | 168° |
| 2026-05-06 18:28 | 50.07383 | 19.76889 | 790 ft | 2 kts | 168° |
| 2026-05-06 18:28 | 50.07345 | 19.76904 | 789 ft | 8 kts | 156° |
| 2026-05-06 18:28 | 50.07318 | 19.76950 | 789 ft | 2 kts | 116° |
| 2026-05-06 18:29 | 50.07313 | 19.76988 | 789 ft | 6 kts | 93° |
| 2026-05-06 18:29 | 50.07325 | 19.77061 | 789 ft | 9 kts | 75° |
| 2026-05-06 18:29 | 50.07339 | 19.77174 | 789 ft | 12 kts | 79° |
| 2026-05-06 18:29 | 50.07358 | 19.77323 | 789 ft | 16 kts | 78° |
| 2026-05-06 18:30 | 50.07385 | 19.77505 | 789 ft | 19 kts | 77° |
| 2026-05-06 18:30 | 50.07415 | 19.77718 | 789 ft | 21 kts | 77° |
| 2026-05-06 18:30 | 50.07449 | 19.77956 | 789 ft | 24 kts | 81° |
| 2026-05-06 18:30 | 50.07483 | 19.78216 | 789 ft | 26 kts | 77° |
| 2026-05-06 18:31 | 50.07522 | 19.78496 | 789 ft | 27 kts | 77° |
| 2026-05-06 18:31 | 50.07565 | 19.78793 | 789 ft | 29 kts | 77° |
| 2026-05-06 18:31 | 50.07598 | 19.79030 | 789 ft | 0 kts | 79° |
| 2026-05-06 18:32 | 50.07600 | 19.79051 | 789 ft | 4 kts | 79° |
| 2026-05-06 18:32 | 50.07609 | 19.79120 | 789 ft | 9 kts | 79° |
| 2026-05-06 18:33 | 50.07626 | 19.79247 | 789 ft | 16 kts | 78° |
| 2026-05-06 18:33 | 50.07654 | 19.79444 | 789 ft | 21 kts | 76° |
| 2026-05-06 18:33 | 50.07688 | 19.79678 | 789 ft | 20 kts | 77° |
| 2026-05-06 18:33 | 50.07692 | 19.79867 | 789 ft | 16 kts | 134° |
| 2026-05-06 18:34 | 50.07620 | 19.79903 | 789 ft | 12 kts | 166° |
| 2026-05-06 18:34 | 50.07528 | 19.79936 | 789 ft | 13 kts | 150° |
| 2026-05-06 18:34 | 50.07514 | 19.80067 | 789 ft | 13 kts | 111° |
| 2026-05-06 18:34 | 50.07464 | 19.80091 | 789 ft | 0 kts | 174° |
| 2026-05-06 18:35 | 50.07467 | 19.80091 | 789 ft | 1 kts | 163° |
| 2026-05-06 18:36 | 50.07473 | 19.80087 | 789 ft | 1 kts | 164° |
| 2026-05-06 18:36 | 50.07474 | 19.80086 | 789 ft | 0 kts | 165° |